Bulldozer — WDD5480 — position and weather

sailwx.info

Track history (hours):
 
Tides and Currents Weather Stations Pressure Air Temp Water Temp Dewpoint Dewpoint Depression Visibility Wind Speed Wind Dir Waves Ship Positions

Bulldozer

Owner: Connecticut Dredge Corp., Inc., Clinton, CT. More information available from US FCC via Universal Licensing System and Coast Guard Vessel Documentation Center.

Last reported at 2018-Jun-13 12:50 UTC. Time now 2018-Jun-21 11:56 UTC.
Position N 42°22' W 071°02'.

Length 18 m; draft 2.5 m.

Type: Towing. MMSI: 367158980.

Date/timePositionNaut miles runAvg speedWind from/ knotsBaromVisibWave heightAir tempDewpointWater temp
2018-Jun-13 12:50N 42°22' W 071°02'0 0.2
2018-Jun-13 12:30N 42°22' W 071°02'0 0.7
2018-Jun-13 12:01N 42°21' W 071°02'2 4.2
2018-Jun-13 11:31N 42°20' W 070°59'2 4.1
2018-Jun-13 11:00N 42°20' W 070°57'2 3.8
2018-Jun-13 10:30N 42°19' W 070°54'2 4.4
2018-Jun-13 10:00N 42°20' W 070°51'2 3.7
2018-Jun-13 09:30N 42°19' W 070°49'2 4.0
2018-Jun-13 09:00N 42°19' W 070°46'2 4.1
2018-Jun-13 08:30N 42°18' W 070°44'2 4.0
2018-Jun-13 07:58N 42°17' W 070°41'2 4.0
2018-Jun-13 07:29N 42°15' W 070°40'3 4.0
2018-Jun-13 06:46N 42°13' W 070°39'96 3.6
2018-Jun-12 04:16N 41°13' W 072°20'2 6.7
2018-Jun-12 03:57N 41°13' W 072°22'3 5.8
2018-Jun-12 03:30N 41°13' W 072°26'3 5.5
2018-Jun-12 03:00N 41°12' W 072°30'2 4.9
2018-Jun-12 02:30N 41°12' W 072°33'2 4.9
2018-Jun-12 02:00N 41°12' W 072°36'2 4.5
2018-Jun-12 01:29N 41°12' W 072°39'2 4.1
2018-Jun-12 01:00N 41°12' W 072°42'2 3.5
2018-Jun-12 00:24N 41°12' W 072°44'  
Track history (hours):
 
Tides and Currents Weather Stations Pressure Air Temp Water Temp Dewpoint Dewpoint Depression Visibility Wind Speed Wind Dir Waves Ship Positions

Bulldozer

Owner: Connecticut Dredge Corp., Inc., Clinton, CT. More information available from US FCC via Universal Licensing System and Coast Guard Vessel Documentation Center.

Last reported at 2018-Jun-13 12:50 UTC. Time now 2018-Jun-21 11:56 UTC.
Position N 42°22' W 071°02'.

Length 18 m; draft 2.5 m.

Type: Towing. MMSI: 367158980.

Date/timePositionNaut miles runAvg speedWind from/ knotsBaromVisibWave heightAir tempDewpointWater temp
2018-Jun-13 12:50N 42°22' W 071°02'0 0.2
2018-Jun-13 12:30N 42°22' W 071°02'0 0.7
2018-Jun-13 12:01N 42°21' W 071°02'2 4.2
2018-Jun-13 11:31N 42°20' W 070°59'2 4.1
2018-Jun-13 11:00N 42°20' W 070°57'2 3.8
2018-Jun-13 10:30N 42°19' W 070°54'2 4.4
2018-Jun-13 10:00N 42°20' W 070°51'2 3.7
2018-Jun-13 09:30N 42°19' W 070°49'2 4.0
2018-Jun-13 09:00N 42°19' W 070°46'2 4.1
2018-Jun-13 08:30N 42°18' W 070°44'2 4.0
2018-Jun-13 07:58N 42°17' W 070°41'2 4.0
2018-Jun-13 07:29N 42°15' W 070°40'3 4.0
2018-Jun-13 06:46N 42°13' W 070°39'96 3.6
2018-Jun-12 04:16N 41°13' W 072°20'2 6.7
2018-Jun-12 03:57N 41°13' W 072°22'3 5.8
2018-Jun-12 03:30N 41°13' W 072°26'3 5.5
2018-Jun-12 03:00N 41°12' W 072°30'2 4.9
2018-Jun-12 02:30N 41°12' W 072°33'2 4.9
2018-Jun-12 02:00N 41°12' W 072°36'2 4.5
2018-Jun-12 01:29N 41°12' W 072°39'2 4.1
2018-Jun-12 01:00N 41°12' W 072°42'2 3.5
2018-Jun-12 00:24N 41°12' W 072°44'  

Dump ship's entire track history